AirNav   Everest Fuels
 
 942 users online  

WI58 Winfield Airport
Bristol, Wisconsin, USA

GOING TO BRISTOL?


FAA INFORMATION EFFECTIVE 10 SEPTEMBER 2020

Location

FAA Identifier: WI58
Lat/Long: 42-31-20.0690N 088-01-40.2950W
42-31.334483N 088-01.671583W
42.5222414,-88.0278597
(estimated)
Elevation: 770 ft. / 235 m (estimated)
Variation: 01W (1985)
From city: 3 miles SE of BRISTOL, WI
Time zone: UTC -5 (UTC -6 during Standard Time)
Zip code: 53104

Airport Operations

Airport use: Private use. Permission required prior to landing
Activation date: 01/1972
Control tower: no
ARTCC: CHICAGO CENTER
FSS: GREEN BAY FLIGHT SERVICE STATION
Attendance: IRREGULAR
Wind indicator: yes
Segmented circle: no

Airport Communications

WX ASOS at ENW (6 nm NE): PHONE 262-652-7730
WX ASOS at UGN (9 nm SE): PHONE 847-782-0876
WX AWOS-3 at BUU (16 nm NW): 125.275 (262-757-0907)
WX ASOS at RAC (17 nm NE): 121.425 (262-635-0959)

Nearby radio navigation aids

VOR radial/distance  VOR name  Freq  Var
OBKr351/18.4NORTHBROOK VOR/DME113.0002W
BAEr160/37.4BADGER VOR/DME116.4002E

 
NDB name  Hdg/Dist  Freq  Var  ID
CODEE181/2.338902WEN . -.
WAUKE292/10.637903WUG ..- --.
LAKE LAWN115/27.140402WLVV .-.. ...- ...-

Airport Services

Airframe service: NONE
Powerplant service: NONE

Runway Information

Runway 18/36

Dimensions: 2000 x 100 ft. / 610 x 30 m
Surface: turf
RUNWAY 18  RUNWAY 36
Traffic pattern: leftleft
Obstructions: treespline

Runway 5/23

Dimensions: 1500 x 100 ft. / 457 x 30 m
Surface: turf
RUNWAY 5  RUNWAY 23
Traffic pattern: leftleft
Obstructions: polenone

Runway 9/27

Dimensions: 1200 x 100 ft. / 366 x 30 m
Surface: turf
RUNWAY 9  RUNWAY 27
Traffic pattern: leftleft
Obstructions: nonebldgs trees

Airport Ownership and Management from official FAA records

Ownership: Privately-owned
Owner: SOFTWING FLIGHT, LLC
18120 WINFIELD ROAD
BRISTOL, WI 53104
Phone 847-910-7150
Manager: PATRCIA SHARPE-GREGG
332 W LAKE STREET
LIBERTYVILLE, IL 60048
Phone (847) 287-2765

Airport Operational Statistics

Aircraft based on the field: 15
Single engine airplanes: 5
Ultralights: 10
    

Additional Remarks

FOR CD CTC CHICAGO ARTCC AT 630-906-8921.

Instrument Procedures

There are no published instrument procedures at WI58.

Some nearby airports with instrument procedures:

KENW - Kenosha Regional Airport (6 nm NE)
KUGN - Waukegan National Airport (9 nm SE)
C81 - Campbell Airport (12 nm S)
KBUU - Burlington Municipal Airport (16 nm NW)
C02 - Grand Geneva Resort Airport (17 nm W)
10C - Galt Field Airport (17 nm SW)
KRAC - Batten International Airport (17 nm NE)
 
Loc | Ops | Rwys | IFR | FBO | Links
Com | Nav | Svcs | Stats | Notes
Area around WI58 (Winfield Airport)
 
Road maps at: MapQuest Bing Google
 
Aerial photo
WARNING: Photo may not be current or correct
Aerial photo of WI58 (Winfield Airport)
Photo by Patricia Sharpe-Gregg
Taken in 2010

Do you have a better or more recent aerial photo of Winfield Airport that you would like to share? If so, please send us your photo.

 
Sectional chart

 
Airport distance calculator
Flying to Winfield Airport? Find the distance to fly.

From to WI58

Sunrise and sunset
Times for 18-Sep-2020
 Local
(UTC-5)
 Zulu
(UTC)
Morning civil twilight06:0911:09
Sunrise06:3711:37
Sunset18:5523:55
Evening civil twilight19:2300:23

Current date and time
Zulu (UTC)  19-Sep-2020 02:06:51
Local (UTC-5)  18-Sep-2020 21:06:51
 
METAR
KENW 
6nm NE 
190153Z 01003KT 10SM CLR 07/03 A3038 RMK AO2 SLP292 T00720033
KUGN 
10nm SE 
190155Z AUTO 36003KT 10SM CLR 07/04 A3037 RMK AO2 SLP286 T00720044
KBUU 
15nm NW 
190155Z AUTO 00000KT 10SM CLR 06/05 A3038 RMK AO2 T00600048 PWINO
KRAC 
17nm NE 
190153Z AUTO 04005KT 10SM CLR 11/03 A3040 RMK AO2 SLP295 T01060033
TAF
KENW 
6nm NE 
182059Z 1821/1918 06011KT P6SM SCT040 FM182200 05006KT P6SM FEW100 FM191400 20003KT P6SM FEW100 FM191700 17005KT P6SM FEW040
NOTAMs
Click for the latest NOTAMs
NOTAMs are issued by the DoD/FAA and will open in a separate window not controlled by AirNav.

 

 
 

Would you like to see your business listed on this page?

 If your business provides an interesting product or service to pilots, flight crews, aircraft, or users of the Winfield Airport, you should consider listing it here.  To start the listing process, click on the button below
 
Add a business
 

Other Pages about Winfield Airport

Update a link
 
Copyright © AirNav, LLC. All rights reserved. Privacy Policy  Contact